sensor_id;sensor_type;location;lat;lon;timestamp;P1;durP1;ratioP1;P2;durP2;ratioP2
55268;SDS011;41131;42.990;21.954;2023-03-03T00:00:14;34.80;;;26.85;;
55268;SDS011;41131;42.990;21.954;2023-03-03T00:02:40;33.85;;;25.58;;
55268;SDS011;41131;42.990;21.954;2023-03-03T00:05:06;36.63;;;27.52;;
55268;SDS011;41131;42.990;21.954;2023-03-03T00:07:32;36.33;;;27.42;;
55268;SDS011;41131;42.990;21.954;2023-03-03T00:09:58;43.75;;;30.88;;
55268;SDS011;41131;42.990;21.954;2023-03-03T00:12:26;44.53;;;31.23;;
55268;SDS011;41131;42.990;21.954;2023-03-03T00:14:54;43.33;;;31.27;;
55268;SDS011;41131;42.990;21.954;2023-03-03T00:17:23;45.92;;;32.15;;
55268;SDS011;41131;42.990;21.954;2023-03-03T00:19:50;38.65;;;28.35;;
55268;SDS011;41131;42.990;21.954;2023-03-03T00:22:27;51.45;;;33.65;;
55268;SDS011;41131;42.990;21.954;2023-03-03T00:24:54;47.97;;;32.22;;
55268;SDS011;41131;42.990;21.954;2023-03-03T00:27:30;46.03;;;30.88;;
55268;SDS011;41131;42.990;21.954;2023-03-03T00:30:00;38.80;;;28.38;;
55268;SDS011;41131;42.990;21.954;2023-03-03T00:32:27;38.25;;;27.15;;
55268;SDS011;41131;42.990;21.954;2023-03-03T00:34:59;33.67;;;24.77;;
55268;SDS011;41131;42.990;21.954;2023-03-03T00:37:33;40.88;;;29.63;;
55268;SDS011;41131;42.990;21.954;2023-03-03T00:40:15;40.97;;;27.25;;
55268;SDS011;41131;42.990;21.954;2023-03-03T00:42:46;38.40;;;27.27;;
55268;SDS011;41131;42.990;21.954;2023-03-03T00:45:19;34.30;;;26.50;;
55268;SDS011;41131;42.990;21.954;2023-03-03T00:47:47;42.35;;;28.35;;
55268;SDS011;41131;42.990;21.954;2023-03-03T00:50:20;40.20;;;27.75;;
55268;SDS011;41131;42.990;21.954;2023-03-03T00:53:05;41.25;;;29.20;;
55268;SDS011;41131;42.990;21.954;2023-03-03T00:55:35;36.80;;;27.85;;
55268;SDS011;41131;42.990;21.954;2023-03-03T00:58:02;37.58;;;26.75;;
55268;SDS011;41131;42.990;21.954;2023-03-03T01:00:28;39.03;;;28.75;;
55268;SDS011;41131;42.990;21.954;2023-03-03T01:02:54;40.05;;;31.45;;
55268;SDS011;41131;42.990;21.954;2023-03-03T01:05:21;43.05;;;28.15;;
55268;SDS011;41131;42.990;21.954;2023-03-03T01:07:47;35.65;;;26.58;;
55268;SDS011;41131;42.990;21.954;2023-03-03T01:10:13;37.67;;;27.60;;
55268;SDS011;41131;42.990;21.954;2023-03-03T01:12:39;36.22;;;26.88;;
55268;SDS011;41131;42.990;21.954;2023-03-03T01:15:06;30.33;;;23.75;;
55268;SDS011;41131;42.990;21.954;2023-03-03T01:17:32;27.83;;;21.55;;
55268;SDS011;41131;42.990;21.954;2023-03-03T01:19:59;28.75;;;22.60;;
55268;SDS011;41131;42.990;21.954;2023-03-03T01:22:25;31.05;;;23.77;;
55268;SDS011;41131;42.990;21.954;2023-03-03T01:24:51;36.88;;;26.10;;
55268;SDS011;41131;42.990;21.954;2023-03-03T01:27:17;40.55;;;27.60;;
55268;SDS011;41131;42.990;21.954;2023-03-03T01:29:43;34.45;;;25.17;;
55268;SDS011;41131;42.990;21.954;2023-03-03T01:32:09;34.20;;;26.27;;
55268;SDS011;41131;42.990;21.954;2023-03-03T01:34:35;33.42;;;24.33;;
55268;SDS011;41131;42.990;21.954;2023-03-03T01:37:02;36.53;;;25.73;;
55268;SDS011;41131;42.990;21.954;2023-03-03T01:39:28;36.17;;;27.02;;
55268;SDS011;41131;42.990;21.954;2023-03-03T01:41:54;38.28;;;26.77;;
55268;SDS011;41131;42.990;21.954;2023-03-03T01:44:20;37.58;;;25.98;;
55268;SDS011;41131;42.990;21.954;2023-03-03T01:49:33;37.33;;;27.92;;
55268;SDS011;41131;42.990;21.954;2023-03-03T01:52:02;35.70;;;27.38;;
55268;SDS011;41131;42.990;21.954;2023-03-03T01:54:30;33.47;;;26.15;;
55268;SDS011;41131;42.990;21.954;2023-03-03T01:56:58;37.67;;;27.08;;
55268;SDS011;41131;42.990;21.954;2023-03-03T01:59:27;38.78;;;27.77;;
55268;SDS011;41131;42.990;21.954;2023-03-03T02:01:54;37.45;;;27.55;;
55268;SDS011;41131;42.990;21.954;2023-03-03T02:04:20;34.20;;;25.50;;
55268;SDS011;41131;42.990;21.954;2023-03-03T02:06:47;39.65;;;27.35;;
55268;SDS011;41131;42.990;21.954;2023-03-03T02:09:17;30.20;;;23.58;;
55268;SDS011;41131;42.990;21.954;2023-03-03T02:11:46;34.00;;;24.95;;
55268;SDS011;41131;42.990;21.954;2023-03-03T02:14:15;33.30;;;24.77;;
55268;SDS011;41131;42.990;21.954;2023-03-03T02:16:41;36.42;;;26.35;;
55268;SDS011;41131;42.990;21.954;2023-03-03T02:19:10;35.28;;;26.70;;
55268;SDS011;41131;42.990;21.954;2023-03-03T02:21:38;38.88;;;26.88;;
55268;SDS011;41131;42.990;21.954;2023-03-03T02:24:06;35.10;;;24.13;;
55268;SDS011;41131;42.990;21.954;2023-03-03T02:26:34;34.30;;;23.65;;
55268;SDS011;41131;42.990;21.954;2023-03-03T02:29:02;42.70;;;29.15;;
55268;SDS011;41131;42.990;21.954;2023-03-03T02:31:28;28.60;;;21.48;;
55268;SDS011;41131;42.990;21.954;2023-03-03T02:33:55;32.95;;;23.20;;
55268;SDS011;41131;42.990;21.954;2023-03-03T02:36:22;35.47;;;24.33;;
55268;SDS011;41131;42.990;21.954;2023-03-03T02:38:54;40.25;;;27.65;;
55268;SDS011;41131;42.990;21.954;2023-03-03T02:44:00;29.30;;;22.02;;
55268;SDS011;41131;42.990;21.954;2023-03-03T02:46:27;29.08;;;21.90;;
55268;SDS011;41131;42.990;21.954;2023-03-03T02:48:53;30.05;;;22.75;;
55268;SDS011;41131;42.990;21.954;2023-03-03T02:51:19;29.65;;;22.52;;
55268;SDS011;41131;42.990;21.954;2023-03-03T02:53:45;29.63;;;22.63;;
55268;SDS011;41131;42.990;21.954;2023-03-03T02:56:11;31.40;;;24.13;;
55268;SDS011;41131;42.990;21.954;2023-03-03T02:58:38;35.53;;;25.83;;
55268;SDS011;41131;42.990;21.954;2023-03-03T03:01:04;34.22;;;24.60;;
55268;SDS011;41131;42.990;21.954;2023-03-03T03:03:30;31.67;;;23.98;;
55268;SDS011;41131;42.990;21.954;2023-03-03T03:05:56;31.42;;;24.38;;
55268;SDS011;41131;42.990;21.954;2023-03-03T03:08:22;30.88;;;24.65;;
55268;SDS011;41131;42.990;21.954;2023-03-03T03:10:48;42.67;;;29.83;;
55268;SDS011;41131;42.990;21.954;2023-03-03T03:13:15;33.03;;;24.98;;
55268;SDS011;41131;42.990;21.954;2023-03-03T03:15:41;34.67;;;24.63;;
55268;SDS011;41131;42.990;21.954;2023-03-03T03:18:07;34.03;;;24.90;;
55268;SDS011;41131;42.990;21.954;2023-03-03T03:20:36;33.22;;;25.38;;
55268;SDS011;41131;42.990;21.954;2023-03-03T03:23:04;30.48;;;23.70;;
55268;SDS011;41131;42.990;21.954;2023-03-03T03:25:30;30.65;;;23.15;;
55268;SDS011;41131;42.990;21.954;2023-03-03T03:27:57;32.30;;;25.02;;
55268;SDS011;41131;42.990;21.954;2023-03-03T03:30:23;30.88;;;22.77;;
55268;SDS011;41131;42.990;21.954;2023-03-03T03:32:49;28.52;;;21.40;;
55268;SDS011;41131;42.990;21.954;2023-03-03T03:35:15;31.00;;;22.35;;
55268;SDS011;41131;42.990;21.954;2023-03-03T03:37:41;32.72;;;22.08;;
55268;SDS011;41131;42.990;21.954;2023-03-03T03:40:08;27.80;;;21.73;;
55268;SDS011;41131;42.990;21.954;2023-03-03T03:42:34;27.00;;;21.50;;
55268;SDS011;41131;42.990;21.954;2023-03-03T03:45:00;25.35;;;20.45;;
55268;SDS011;41131;42.990;21.954;2023-03-03T03:47:26;28.77;;;22.55;;
55268;SDS011;41131;42.990;21.954;2023-03-03T03:49:52;28.40;;;21.85;;
55268;SDS011;41131;42.990;21.954;2023-03-03T03:52:18;31.60;;;22.52;;
55268;SDS011;41131;42.990;21.954;2023-03-03T03:54:44;30.90;;;22.60;;
55268;SDS011;41131;42.990;21.954;2023-03-03T03:57:10;29.65;;;23.08;;
55268;SDS011;41131;42.990;21.954;2023-03-03T03:59:36;27.58;;;20.70;;
55268;SDS011;41131;42.990;21.954;2023-03-03T04:02:02;28.67;;;21.92;;
55268;SDS011;41131;42.990;21.954;2023-03-03T04:04:28;27.65;;;22.70;;
55268;SDS011;41131;42.990;21.954;2023-03-03T04:06:54;29.60;;;22.17;;
55268;SDS011;41131;42.990;21.954;2023-03-03T04:09:21;31.45;;;24.25;;
55268;SDS011;41131;42.990;21.954;2023-03-03T04:11:47;29.27;;;23.02;;
55268;SDS011;41131;42.990;21.954;2023-03-03T04:14:13;34.78;;;24.38;;
55268;SDS011;41131;42.990;21.954;2023-03-03T04:16:39;27.50;;;21.63;;
55268;SDS011;41131;42.990;21.954;2023-03-03T04:19:05;28.83;;;22.02;;
55268;SDS011;41131;42.990;21.954;2023-03-03T04:21:31;29.38;;;22.23;;
55268;SDS011;41131;42.990;21.954;2023-03-03T04:23:57;31.30;;;21.75;;
55268;SDS011;41131;42.990;21.954;2023-03-03T04:26:23;29.85;;;22.95;;
55268;SDS011;41131;42.990;21.954;2023-03-03T04:28:50;35.00;;;25.20;;
55268;SDS011;41131;42.990;21.954;2023-03-03T04:31:16;38.25;;;28.65;;
55268;SDS011;41131;42.990;21.954;2023-03-03T04:33:44;43.88;;;28.73;;
55268;SDS011;41131;42.990;21.954;2023-03-03T04:36:10;34.60;;;26.17;;
55268;SDS011;41131;42.990;21.954;2023-03-03T04:38:36;37.88;;;27.10;;
55268;SDS011;41131;42.990;21.954;2023-03-03T04:41:02;35.08;;;26.30;;
55268;SDS011;41131;42.990;21.954;2023-03-03T04:43:28;33.85;;;24.58;;
55268;SDS011;41131;42.990;21.954;2023-03-03T04:45:54;32.38;;;25.33;;
55268;SDS011;41131;42.990;21.954;2023-03-03T04:48:21;38.65;;;26.20;;
55268;SDS011;41131;42.990;21.954;2023-03-03T04:50:47;31.58;;;24.80;;
55268;SDS011;41131;42.990;21.954;2023-03-03T04:53:13;35.50;;;26.25;;
55268;SDS011;41131;42.990;21.954;2023-03-03T04:55:39;37.42;;;27.55;;
55268;SDS011;41131;42.990;21.954;2023-03-03T04:58:05;36.30;;;28.13;;
55268;SDS011;41131;42.990;21.954;2023-03-03T05:00:33;32.80;;;25.02;;
55268;SDS011;41131;42.990;21.954;2023-03-03T05:02:59;34.53;;;26.77;;
55268;SDS011;41131;42.990;21.954;2023-03-03T05:05:25;33.35;;;24.20;;
55268;SDS011;41131;42.990;21.954;2023-03-03T05:07:51;32.08;;;24.17;;
55268;SDS011;41131;42.990;21.954;2023-03-03T05:10:17;33.75;;;25.27;;
55268;SDS011;41131;42.990;21.954;2023-03-03T05:12:44;42.03;;;30.00;;
55268;SDS011;41131;42.990;21.954;2023-03-03T05:15:12;41.80;;;29.67;;
55268;SDS011;41131;42.990;21.954;2023-03-03T05:17:39;33.65;;;26.13;;
55268;SDS011;41131;42.990;21.954;2023-03-03T05:20:05;34.83;;;27.20;;
55268;SDS011;41131;42.990;21.954;2023-03-03T05:22:32;38.63;;;29.35;;
55268;SDS011;41131;42.990;21.954;2023-03-03T05:24:58;42.10;;;32.53;;
55268;SDS011;41131;42.990;21.954;2023-03-03T05:27:24;43.53;;;33.00;;
55268;SDS011;41131;42.990;21.954;2023-03-03T05:29:51;39.55;;;31.00;;
55268;SDS011;41131;42.990;21.954;2023-03-03T05:32:17;34.78;;;26.52;;
55268;SDS011;41131;42.990;21.954;2023-03-03T05:34:43;33.03;;;26.27;;
55268;SDS011;41131;42.990;21.954;2023-03-03T05:37:09;37.67;;;28.45;;
55268;SDS011;41131;42.990;21.954;2023-03-03T05:39:35;44.53;;;34.72;;
55268;SDS011;41131;42.990;21.954;2023-03-03T05:42:01;51.63;;;37.05;;
55268;SDS011;41131;42.990;21.954;2023-03-03T05:44:27;39.85;;;29.98;;
55268;SDS011;41131;42.990;21.954;2023-03-03T05:46:53;39.13;;;27.73;;
55268;SDS011;41131;42.990;21.954;2023-03-03T05:49:21;50.10;;;37.92;;
55268;SDS011;41131;42.990;21.954;2023-03-03T05:51:47;62.72;;;46.60;;
55268;SDS011;41131;42.990;21.954;2023-03-03T05:54:13;55.75;;;40.50;;
55268;SDS011;41131;42.990;21.954;2023-03-03T05:56:39;49.85;;;37.17;;
55268;SDS011;41131;42.990;21.954;2023-03-03T05:59:05;46.70;;;34.67;;
55268;SDS011;41131;42.990;21.954;2023-03-03T06:01:31;42.92;;;32.50;;
55268;SDS011;41131;42.990;21.954;2023-03-03T06:03:57;47.22;;;36.08;;
55268;SDS011;41131;42.990;21.954;2023-03-03T06:06:23;64.68;;;46.25;;
55268;SDS011;41131;42.990;21.954;2023-03-03T06:08:50;48.53;;;34.53;;
55268;SDS011;41131;42.990;21.954;2023-03-03T06:11:20;53.92;;;40.35;;
55268;SDS011;41131;42.990;21.954;2023-03-03T06:13:46;42.67;;;32.53;;
55268;SDS011;41131;42.990;21.954;2023-03-03T06:16:12;43.28;;;32.47;;
55268;SDS011;41131;42.990;21.954;2023-03-03T06:18:38;46.08;;;33.15;;
55268;SDS011;41131;42.990;21.954;2023-03-03T06:21:04;46.00;;;33.10;;
55268;SDS011;41131;42.990;21.954;2023-03-03T06:23:32;48.63;;;35.65;;
55268;SDS011;41131;42.990;21.954;2023-03-03T06:25:58;55.30;;;38.67;;
55268;SDS011;41131;42.990;21.954;2023-03-03T06:28:24;51.25;;;36.15;;
55268;SDS011;41131;42.990;21.954;2023-03-03T06:30:54;55.75;;;38.60;;
55268;SDS011;41131;42.990;21.954;2023-03-03T06:33:20;62.35;;;42.15;;
55268;SDS011;41131;42.990;21.954;2023-03-03T06:35:50;72.82;;;48.80;;
55268;SDS011;41131;42.990;21.954;2023-03-03T06:38:19;111.30;;;56.90;;
55268;SDS011;41131;42.990;21.954;2023-03-03T06:40:46;68.13;;;45.90;;
55268;SDS011;41131;42.990;21.954;2023-03-03T06:43:12;70.32;;;49.58;;
55268;SDS011;41131;42.990;21.954;2023-03-03T06:45:38;71.18;;;52.05;;
55268;SDS011;41131;42.990;21.954;2023-03-03T06:48:05;69.70;;;51.47;;
55268;SDS011;41131;42.990;21.954;2023-03-03T06:50:31;54.95;;;41.80;;
55268;SDS011;41131;42.990;21.954;2023-03-03T06:53:11;52.60;;;39.15;;
55268;SDS011;41131;42.990;21.954;2023-03-03T06:55:37;63.15;;;47.17;;
55268;SDS011;41131;42.990;21.954;2023-03-03T06:58:07;67.03;;;48.60;;
55268;SDS011;41131;42.990;21.954;2023-03-03T07:00:35;62.72;;;43.95;;
55268;SDS011;41131;42.990;21.954;2023-03-03T07:03:11;58.40;;;44.67;;
55268;SDS011;41131;42.990;21.954;2023-03-03T07:05:37;54.25;;;40.22;;
55268;SDS011;41131;42.990;21.954;2023-03-03T07:08:17;60.28;;;43.35;;
55268;SDS011;41131;42.990;21.954;2023-03-03T07:10:44;50.25;;;39.92;;
55268;SDS011;41131;42.990;21.954;2023-03-03T07:15:39;56.30;;;41.33;;
55268;SDS011;41131;42.990;21.954;2023-03-03T07:18:06;49.30;;;37.05;;
55268;SDS011;41131;42.990;21.954;2023-03-03T07:20:40;52.10;;;41.40;;
55268;SDS011;41131;42.990;21.954;2023-03-03T07:23:26;56.58;;;46.13;;
55268;SDS011;41131;42.990;21.954;2023-03-03T07:25:52;73.78;;;59.97;;
55268;SDS011;41131;42.990;21.954;2023-03-03T07:30:49;71.90;;;53.83;;
55268;SDS011;41131;42.990;21.954;2023-03-03T07:33:23;69.57;;;52.88;;
55268;SDS011;41131;42.990;21.954;2023-03-03T07:35:50;72.97;;;54.08;;
55268;SDS011;41131;42.990;21.954;2023-03-03T07:40:58;83.47;;;60.63;;
55268;SDS011;41131;42.990;21.954;2023-03-03T07:43:30;74.88;;;57.78;;
55268;SDS011;41131;42.990;21.954;2023-03-03T07:46:01;65.50;;;49.20;;
55268;SDS011;41131;42.990;21.954;2023-03-03T07:48:34;77.65;;;57.10;;
55268;SDS011;41131;42.990;21.954;2023-03-03T07:51:03;68.45;;;49.75;;
55268;SDS011;41131;42.990;21.954;2023-03-03T07:53:30;73.68;;;53.35;;
55268;SDS011;41131;42.990;21.954;2023-03-03T07:55:59;89.00;;;68.00;;
55268;SDS011;41131;42.990;21.954;2023-03-03T07:58:35;61.80;;;47.17;;
55268;SDS011;41131;42.990;21.954;2023-03-03T08:03:46;56.90;;;44.22;;
55268;SDS011;41131;42.990;21.954;2023-03-03T08:11:36;64.20;;;48.88;;
55268;SDS011;41131;42.990;21.954;2023-03-03T08:14:10;87.00;;;65.97;;
55268;SDS011;41131;42.990;21.954;2023-03-03T08:16:37;77.22;;;56.80;;
55268;SDS011;41131;42.990;21.954;2023-03-03T08:19:04;70.47;;;52.97;;
55268;SDS011;41131;42.990;21.954;2023-03-03T08:21:30;64.20;;;47.17;;
55268;SDS011;41131;42.990;21.954;2023-03-03T08:23:58;64.00;;;49.08;;
55268;SDS011;41131;42.990;21.954;2023-03-03T08:26:24;62.55;;;47.40;;
55268;SDS011;41131;42.990;21.954;2023-03-03T08:28:51;65.70;;;48.97;;
55268;SDS011;41131;42.990;21.954;2023-03-03T08:31:17;64.35;;;48.25;;
55268;SDS011;41131;42.990;21.954;2023-03-03T08:33:44;69.88;;;52.38;;
55268;SDS011;41131;42.990;21.954;2023-03-03T08:36:10;57.60;;;40.38;;
55268;SDS011;41131;42.990;21.954;2023-03-03T08:38:36;56.38;;;39.50;;
55268;SDS011;41131;42.990;21.954;2023-03-03T08:41:03;59.65;;;43.47;;
55268;SDS011;41131;42.990;21.954;2023-03-03T08:43:29;65.50;;;46.05;;
55268;SDS011;41131;42.990;21.954;2023-03-03T08:45:59;62.88;;;45.22;;
55268;SDS011;41131;42.990;21.954;2023-03-03T08:48:25;61.33;;;43.47;;
55268;SDS011;41131;42.990;21.954;2023-03-03T08:50:51;59.55;;;41.38;;
55268;SDS011;41131;42.990;21.954;2023-03-03T08:53:18;72.80;;;51.90;;
55268;SDS011;41131;42.990;21.954;2023-03-03T08:55:44;62.47;;;48.08;;
55268;SDS011;41131;42.990;21.954;2023-03-03T08:58:11;58.65;;;46.33;;
55268;SDS011;41131;42.990;21.954;2023-03-03T09:00:37;60.80;;;47.53;;
55268;SDS011;41131;42.990;21.954;2023-03-03T09:03:04;49.28;;;39.63;;
55268;SDS011;41131;42.990;21.954;2023-03-03T09:05:34;52.63;;;41.35;;
55268;SDS011;41131;42.990;21.954;2023-03-03T09:08:00;51.75;;;40.60;;
55268;SDS011;41131;42.990;21.954;2023-03-03T09:10:26;41.47;;;35.38;;
55268;SDS011;41131;42.990;21.954;2023-03-03T09:12:53;49.47;;;39.42;;
55268;SDS011;41131;42.990;21.954;2023-03-03T09:17:52;72.28;;;56.72;;
55268;SDS011;41131;42.990;21.954;2023-03-03T09:25:48;86.88;;;69.13;;
55268;SDS011;41131;42.990;21.954;2023-03-03T09:28:22;91.70;;;72.18;;
55268;SDS011;41131;42.990;21.954;2023-03-03T09:30:49;107.80;;;85.10;;
55268;SDS011;41131;42.990;21.954;2023-03-03T09:36:26;153.38;;;115.50;;
55268;SDS011;41131;42.990;21.954;2023-03-03T09:38:53;126.18;;;99.15;;
55268;SDS011;41131;42.990;21.954;2023-03-03T09:46:24;110.22;;;89.13;;
55268;SDS011;41131;42.990;21.954;2023-03-03T09:49:22;108.82;;;84.22;;
55268;SDS011;41131;42.990;21.954;2023-03-03T09:56:50;94.97;;;74.20;;
55268;SDS011;41131;42.990;21.954;2023-03-03T10:01:49;84.85;;;67.95;;
55268;SDS011;41131;42.990;21.954;2023-03-03T10:11:55;77.95;;;61.38;;
55268;SDS011;41131;42.990;21.954;2023-03-03T10:17:20;75.30;;;60.15;;
55268;SDS011;41131;42.990;21.954;2023-03-03T10:30:06;69.50;;;58.75;;
55268;SDS011;41131;42.990;21.954;2023-03-03T10:32:45;56.10;;;46.58;;
55268;SDS011;41131;42.990;21.954;2023-03-03T10:35:29;58.03;;;47.80;;
55268;SDS011;41131;42.990;21.954;2023-03-03T11:01:59;39.63;;;35.33;;
55268;SDS011;41131;42.990;21.954;2023-03-03T11:06:49;43.55;;;37.05;;
55268;SDS011;41131;42.990;21.954;2023-03-03T11:14:32;44.05;;;37.92;;
55268;SDS011;41131;42.990;21.954;2023-03-03T11:17:12;51.42;;;44.60;;
55268;SDS011;41131;42.990;21.954;2023-03-03T11:19:49;69.32;;;55.95;;
55268;SDS011;41131;42.990;21.954;2023-03-03T11:34:59;45.63;;;40.70;;
55268;SDS011;41131;42.990;21.954;2023-03-03T11:37:40;42.88;;;34.83;;
55268;SDS011;41131;42.990;21.954;2023-03-03T11:40:12;44.75;;;37.67;;
55268;SDS011;41131;42.990;21.954;2023-03-03T11:45:33;68.13;;;55.10;;
55268;SDS011;41131;42.990;21.954;2023-03-03T11:53:25;36.05;;;29.52;;
55268;SDS011;41131;42.990;21.954;2023-03-03T11:56:03;61.03;;;42.05;;
55268;SDS011;41131;42.990;21.954;2023-03-03T11:58:34;28.88;;;24.35;;
55268;SDS011;41131;42.990;21.954;2023-03-03T12:03:44;26.05;;;21.13;;
55268;SDS011;41131;42.990;21.954;2023-03-03T12:08:43;99.30;;;67.15;;
55268;SDS011;41131;42.990;21.954;2023-03-03T12:11:16;36.35;;;29.17;;
55268;SDS011;41131;42.990;21.954;2023-03-03T12:24:33;35.80;;;29.45;;
55268;SDS011;41131;42.990;21.954;2023-03-03T12:32:09;38.42;;;33.03;;
55268;SDS011;41131;42.990;21.954;2023-03-03T12:34:44;36.50;;;29.80;;
55268;SDS011;41131;42.990;21.954;2023-03-03T12:42:33;49.85;;;41.33;;
55268;SDS011;41131;42.990;21.954;2023-03-03T12:45:23;61.10;;;46.70;;
55268;SDS011;41131;42.990;21.954;2023-03-03T12:48:00;59.20;;;46.00;;
55268;SDS011;41131;42.990;21.954;2023-03-03T12:50:51;86.32;;;61.38;;
55268;SDS011;41131;42.990;21.954;2023-03-03T12:56:11;52.42;;;42.70;;
55268;SDS011;41131;42.990;21.954;2023-03-03T13:06:29;64.53;;;55.40;;
55268;SDS011;41131;42.990;21.954;2023-03-03T13:17:22;61.28;;;50.75;;
55268;SDS011;41131;42.990;21.954;2023-03-03T13:20:00;65.60;;;53.47;;
55268;SDS011;41131;42.990;21.954;2023-03-03T13:22:40;56.10;;;47.03;;
55268;SDS011;41131;42.990;21.954;2023-03-03T13:27:44;86.97;;;74.32;;
55268;SDS011;41131;42.990;21.954;2023-03-03T13:30:31;117.45;;;103.97;;
55268;SDS011;41131;42.990;21.954;2023-03-03T13:33:08;52.17;;;45.78;;
55268;SDS011;41131;42.990;21.954;2023-03-03T13:35:44;88.80;;;77.25;;
55268;SDS011;41131;42.990;21.954;2023-03-03T13:38:13;74.20;;;64.68;;
55268;SDS011;41131;42.990;21.954;2023-03-03T13:40:47;67.97;;;54.55;;
55268;SDS011;41131;42.990;21.954;2023-03-03T13:43:18;131.02;;;107.95;;
55268;SDS011;41131;42.990;21.954;2023-03-03T13:53:45;80.90;;;67.57;;
55268;SDS011;41131;42.990;21.954;2023-03-03T14:01:29;66.15;;;56.53;;
55268;SDS011;41131;42.990;21.954;2023-03-03T14:03:58;81.93;;;71.18;;
55268;SDS011;41131;42.990;21.954;2023-03-03T14:06:27;45.85;;;36.50;;
55268;SDS011;41131;42.990;21.954;2023-03-03T14:16:50;68.63;;;35.00;;
55268;SDS011;41131;42.990;21.954;2023-03-03T14:19:18;56.65;;;43.65;;
55268;SDS011;41131;42.990;21.954;2023-03-03T14:24:16;71.80;;;60.00;;
55268;SDS011;41131;42.990;21.954;2023-03-03T14:27:00;64.95;;;45.00;;
55268;SDS011;41131;42.990;21.954;2023-03-03T14:29:31;67.65;;;53.17;;
55268;SDS011;41131;42.990;21.954;2023-03-03T14:32:01;92.53;;;71.40;;
55268;SDS011;41131;42.990;21.954;2023-03-03T14:34:39;63.67;;;51.10;;
55268;SDS011;41131;42.990;21.954;2023-03-03T14:40:03;73.38;;;58.20;;
55268;SDS011;41131;42.990;21.954;2023-03-03T14:45:00;71.18;;;44.72;;
55268;SDS011;41131;42.990;21.954;2023-03-03T14:47:28;66.13;;;52.15;;
55268;SDS011;41131;42.990;21.954;2023-03-03T14:49:56;87.07;;;48.08;;
55268;SDS011;41131;42.990;21.954;2023-03-03T14:52:28;48.80;;;42.15;;
55268;SDS011;41131;42.990;21.954;2023-03-03T14:54:55;84.82;;;43.42;;
55268;SDS011;41131;42.990;21.954;2023-03-03T15:05:26;25.80;;;17.67;;
55268;SDS011;41131;42.990;21.954;2023-03-03T15:18:25;84.57;;;33.03;;
55268;SDS011;41131;42.990;21.954;2023-03-03T15:20:51;62.95;;;42.53;;
55268;SDS011;41131;42.990;21.954;2023-03-03T15:36:44;57.92;;;39.60;;
55268;SDS011;41131;42.990;21.954;2023-03-03T15:41:50;38.88;;;30.13;;
55268;SDS011;41131;42.990;21.954;2023-03-03T15:44:34;63.38;;;46.67;;
55268;SDS011;41131;42.990;21.954;2023-03-03T15:47:46;58.25;;;35.55;;
55268;SDS011;41131;42.990;21.954;2023-03-03T15:52:25;54.35;;;36.95;;
55268;SDS011;41131;42.990;21.954;2023-03-03T16:05:00;88.78;;;60.33;;
55268;SDS011;41131;42.990;21.954;2023-03-03T16:07:35;90.85;;;56.72;;
55268;SDS011;41131;42.990;21.954;2023-03-03T16:20:21;86.13;;;57.90;;
55268;SDS011;41131;42.990;21.954;2023-03-03T16:25:33;174.90;;;110.88;;
55268;SDS011;41131;42.990;21.954;2023-03-03T16:28:05;161.32;;;109.75;;
55268;SDS011;41131;42.990;21.954;2023-03-03T16:30:43;77.72;;;52.25;;
55268;SDS011;41131;42.990;21.954;2023-03-03T16:33:26;54.58;;;36.67;;
55268;SDS011;41131;42.990;21.954;2023-03-03T16:38:33;71.38;;;56.90;;
55268;SDS011;41131;42.990;21.954;2023-03-03T16:41:02;102.30;;;81.53;;
55268;SDS011;41131;42.990;21.954;2023-03-03T16:46:30;45.10;;;32.38;;
55268;SDS011;41131;42.990;21.954;2023-03-03T16:48:52;54.63;;;42.55;;
55268;SDS011;41131;42.990;21.954;2023-03-03T16:58:44;94.55;;;83.75;;
55268;SDS011;41131;42.990;21.954;2023-03-03T17:06:17;44.15;;;34.53;;
55268;SDS011;41131;42.990;21.954;2023-03-03T17:18:55;73.57;;;53.88;;
55268;SDS011;41131;42.990;21.954;2023-03-03T17:24:05;62.70;;;43.08;;
55268;SDS011;41131;42.990;21.954;2023-03-03T17:26:43;73.95;;;52.92;;
55268;SDS011;41131;42.990;21.954;2023-03-03T17:31:52;79.85;;;56.72;;
55268;SDS011;41131;42.990;21.954;2023-03-03T17:34:26;86.43;;;65.38;;
55268;SDS011;41131;42.990;21.954;2023-03-03T17:42:09;100.10;;;74.75;;
55268;SDS011;41131;42.990;21.954;2023-03-03T17:47:24;272.77;;;196.52;;
55268;SDS011;41131;42.990;21.954;2023-03-03T17:50:09;139.35;;;103.72;;
55268;SDS011;41131;42.990;21.954;2023-03-03T18:11:02;407.92;;;259.75;;
55268;SDS011;41131;42.990;21.954;2023-03-03T18:16:21;142.43;;;107.40;;
55268;SDS011;41131;42.990;21.954;2023-03-03T18:21:36;92.07;;;66.60;;
55268;SDS011;41131;42.990;21.954;2023-03-03T18:25:07;90.38;;;65.80;;
55268;SDS011;41131;42.990;21.954;2023-03-03T18:30:12;150.80;;;102.03;;
55268;SDS011;41131;42.990;21.954;2023-03-03T18:37:53;66.85;;;45.35;;
55268;SDS011;41131;42.990;21.954;2023-03-03T18:40:34;76.65;;;51.67;;
55268;SDS011;41131;42.990;21.954;2023-03-03T18:45:58;100.47;;;71.63;;
55268;SDS011;41131;42.990;21.954;2023-03-03T18:51:08;85.00;;;60.10;;
55268;SDS011;41131;42.990;21.954;2023-03-03T18:53:35;77.93;;;57.95;;
55268;SDS011;41131;42.990;21.954;2023-03-03T18:56:02;99.15;;;72.07;;
55268;SDS011;41131;42.990;21.954;2023-03-03T18:58:30;99.82;;;75.43;;
55268;SDS011;41131;42.990;21.954;2023-03-03T19:01:10;113.40;;;84.25;;
55268;SDS011;41131;42.990;21.954;2023-03-03T19:09:02;104.68;;;78.03;;
55268;SDS011;41131;42.990;21.954;2023-03-03T19:14:56;132.93;;;81.75;;
55268;SDS011;41131;42.990;21.954;2023-03-03T19:16:54;70.13;;;42.17;;
55268;SDS011;41131;42.990;21.954;2023-03-03T19:19:25;91.43;;;61.10;;
55268;SDS011;41131;42.990;21.954;2023-03-03T19:24:38;110.22;;;75.50;;
55268;SDS011;41131;42.990;21.954;2023-03-03T19:48:05;33.17;;;22.73;;
55268;SDS011;41131;42.990;21.954;2023-03-03T19:55:50;68.93;;;39.10;;
55268;SDS011;41131;42.990;21.954;2023-03-03T19:58:28;44.42;;;22.55;;
55268;SDS011;41131;42.990;21.954;2023-03-03T20:01:02;57.00;;;39.15;;
55268;SDS011;41131;42.990;21.954;2023-03-03T20:06:24;78.22;;;53.75;;
55268;SDS011;41131;42.990;21.954;2023-03-03T20:11:36;229.63;;;158.40;;
55268;SDS011;41131;42.990;21.954;2023-03-03T20:16:58;120.88;;;83.35;;
55268;SDS011;41131;42.990;21.954;2023-03-03T20:19:38;136.70;;;99.65;;
55268;SDS011;41131;42.990;21.954;2023-03-03T20:22:08;119.70;;;89.13;;
55268;SDS011;41131;42.990;21.954;2023-03-03T20:27:16;113.80;;;82.55;;
55268;SDS011;41131;42.990;21.954;2023-03-03T20:37:05;55.15;;;30.80;;
55268;SDS011;41131;42.990;21.954;2023-03-03T20:42:23;55.30;;;30.75;;
55268;SDS011;41131;42.990;21.954;2023-03-03T20:52:19;88.28;;;45.05;;
55268;SDS011;41131;42.990;21.954;2023-03-03T20:54:59;92.00;;;51.92;;
55268;SDS011;41131;42.990;21.954;2023-03-03T20:57:43;82.07;;;52.13;;
55268;SDS011;41131;42.990;21.954;2023-03-03T21:03:13;68.88;;;46.00;;